createdAt,value
2023-03-26T00:00:17.350Z,6.77
2023-03-26T00:02:18.944Z,6.75
2023-03-26T00:04:21.751Z,6.81
2023-03-26T00:06:26.382Z,6.68
2023-03-26T00:08:27.932Z,6.57
2023-03-26T00:10:29.606Z,6.63
2023-03-26T00:12:31.202Z,6.61
2023-03-26T00:14:33.439Z,6.79
2023-03-26T00:16:36.047Z,6.90
2023-03-26T00:18:40.326Z,6.77
2023-03-26T00:20:41.822Z,6.77
2023-03-26T00:22:43.359Z,6.87
2023-03-26T00:24:47.512Z,6.81
2023-03-26T00:26:54.592Z,6.78
2023-03-26T00:28:58.154Z,6.77
2023-03-26T00:31:02.476Z,6.80
2023-03-26T00:33:04.312Z,6.72
2023-03-26T00:35:06.363Z,6.63
2023-03-26T00:37:08.746Z,6.75
2023-03-26T00:39:10.423Z,6.70
2023-03-26T00:41:25.458Z,6.65
2023-03-26T00:43:32.678Z,6.58
2023-03-26T00:45:34.187Z,6.63
2023-03-26T00:47:36.303Z,6.63
2023-03-26T00:49:39.291Z,6.63
2023-03-26T00:51:41.790Z,6.69
2023-03-26T00:53:45.781Z,6.80
2023-03-26T00:55:47.880Z,6.83
2023-03-26T00:57:49.377Z,6.73
2023-03-26T00:59:51.273Z,6.67
2023-03-26T01:01:54.932Z,6.74
2023-03-26T01:04:08.939Z,6.69
2023-03-26T01:06:14.079Z,6.71
2023-03-26T01:08:30.604Z,6.80
2023-03-26T01:10:38.868Z,6.81
2023-03-26T01:12:40.599Z,6.89
2023-03-26T01:14:43.116Z,6.77
2023-03-26T01:16:52.825Z,6.80
2023-03-26T01:18:54.863Z,6.80
2023-03-26T01:20:58.548Z,6.84
2023-03-26T01:23:08.084Z,6.66
2023-03-26T01:25:10.080Z,6.69
2023-03-26T01:27:32.254Z,6.66
2023-03-26T01:29:54.609Z,6.63
2023-03-26T01:32:09.508Z,6.69
2023-03-26T01:34:17.759Z,6.50
2023-03-26T01:36:38.043Z,6.59
2023-03-26T01:38:50.152Z,6.60
2023-03-26T01:41:16.246Z,6.62
2023-03-26T01:43:32.773Z,6.55
2023-03-26T01:45:38.680Z,6.59
2023-03-26T01:47:42.179Z,6.68
2023-03-26T01:49:43.755Z,6.77
2023-03-26T01:51:45.831Z,6.77
2023-03-26T01:53:48.261Z,6.68
2023-03-26T01:56:10.833Z,6.64
2023-03-26T01:58:29.959Z,6.70
2023-03-26T02:00:35.860Z,6.68
2023-03-26T02:03:17.366Z,6.61
2023-03-26T02:05:26.271Z,6.69
2023-03-26T02:07:41.063Z,6.66
2023-03-26T02:09:45.837Z,6.56
2023-03-26T02:11:49.407Z,6.67
2023-03-26T02:13:51.810Z,6.60
2023-03-26T02:16:01.611Z,6.56
2023-03-26T02:18:04.047Z,6.69
2023-03-26T02:20:11.233Z,6.45
2023-03-26T02:22:15.511Z,6.43
2023-03-26T02:24:19.750Z,6.46
2023-03-26T02:26:21.864Z,6.56
2023-03-26T02:28:31.509Z,6.38
2023-03-26T02:30:33.607Z,6.38
2023-03-26T02:32:36.587Z,6.38
2023-03-26T02:34:41.954Z,6.30
2023-03-26T02:36:43.754Z,6.41
2023-03-26T02:38:45.283Z,6.45
2023-03-26T02:40:49.240Z,6.31
2023-03-26T02:42:51.040Z,6.32
2023-03-26T02:44:52.582Z,6.33
2023-03-26T02:46:54.193Z,6.32
2023-03-26T02:49:16.201Z,6.41
2023-03-26T02:51:19.441Z,6.31
2023-03-26T02:53:30.648Z,6.34
2023-03-26T02:55:52.549Z,6.34
2023-03-26T02:57:56.339Z,6.32
2023-03-26T03:00:13.969Z,6.38
2023-03-26T03:02:34.726Z,6.36
2023-03-26T03:05:01.376Z,6.27
2023-03-26T03:07:07.731Z,6.24
2023-03-26T03:09:09.752Z,6.33
2023-03-26T03:11:24.908Z,6.32
2023-03-26T03:13:28.027Z,6.37
2023-03-26T03:15:29.638Z,6.28
2023-03-26T03:17:31.256Z,6.08
2023-03-26T03:19:32.984Z,6.21
2023-03-26T03:21:35.186Z,6.22
2023-03-26T03:23:37.093Z,6.25
2023-03-26T03:25:45.351Z,6.23
2023-03-26T03:27:47.828Z,6.21
2023-03-26T03:29:49.754Z,6.22
2023-03-26T03:32:23.526Z,6.12
2023-03-26T03:34:27.870Z,5.97
2023-03-26T03:36:30.393Z,5.98
2023-03-26T03:38:40.795Z,6.02
2023-03-26T03:40:44.433Z,6.08
2023-03-26T03:42:46.778Z,6.04
2023-03-26T03:44:53.828Z,5.96
2023-03-26T03:47:18.622Z,6.14
2023-03-26T03:49:22.548Z,6.12
2023-03-26T03:51:24.427Z,5.90
2023-03-26T03:53:30.458Z,5.97
2023-03-26T03:55:38.308Z,6.00
2023-03-26T03:57:40.507Z,5.86
2023-03-26T03:59:47.988Z,5.84
2023-03-26T04:01:51.111Z,5.81
2023-03-26T04:04:08.175Z,5.78
2023-03-26T04:06:21.221Z,5.72
2023-03-26T04:08:26.616Z,5.77
2023-03-26T04:10:30.305Z,5.68
2023-03-26T04:12:38.518Z,5.56
2023-03-26T04:14:41.053Z,5.57
2023-03-26T04:16:48.975Z,5.64
2023-03-26T04:18:50.923Z,5.64
2023-03-26T04:20:55.416Z,5.63
2023-03-26T04:23:00.984Z,5.62
2023-03-26T04:25:02.911Z,5.50
2023-03-26T04:27:28.126Z,5.52
2023-03-26T04:29:42.826Z,5.53
2023-03-26T04:31:50.408Z,5.51
2023-03-26T04:33:55.128Z,5.60
2023-03-26T04:36:02.245Z,5.53
2023-03-26T04:38:06.495Z,5.50
2023-03-26T04:40:17.496Z,5.45
2023-03-26T04:42:46.287Z,5.46
2023-03-26T04:44:59.647Z,5.40
2023-03-26T04:47:01.771Z,5.38
2023-03-26T04:49:19.588Z,5.33
2023-03-26T04:51:27.059Z,5.37
2023-03-26T04:53:29.732Z,5.40
2023-03-26T04:55:41.025Z,5.40
2023-03-26T04:57:55.899Z,5.40
2023-03-26T05:00:20.283Z,5.37
2023-03-26T05:02:28.788Z,5.39
2023-03-26T05:04:31.318Z,5.29
2023-03-26T05:06:34.434Z,5.34
2023-03-26T05:08:41.630Z,5.38
2023-03-26T05:10:46.392Z,5.45
2023-03-26T05:12:54.068Z,5.50
2023-03-26T05:15:00.420Z,5.48
2023-03-26T05:17:30.886Z,5.55
2023-03-26T05:19:33.125Z,5.62
2023-03-26T05:21:35.270Z,5.63
2023-03-26T05:23:39.525Z,5.64
2023-03-26T05:26:01.614Z,5.64
2023-03-26T05:28:03.250Z,5.64
2023-03-26T05:30:15.996Z,5.73
2023-03-26T05:32:20.809Z,5.74
2023-03-26T05:34:27.081Z,5.68
2023-03-26T05:36:29.095Z,5.73
2023-03-26T05:38:43.404Z,5.80
2023-03-26T05:40:46.984Z,5.73
2023-03-26T05:42:53.140Z,5.76
2023-03-26T05:45:15.391Z,5.87
2023-03-26T05:47:17.113Z,5.85
2023-03-26T05:49:19.102Z,5.84
2023-03-26T05:51:23.287Z,5.69
2023-03-26T05:53:50.342Z,5.75
2023-03-26T05:56:17.665Z,5.76
2023-03-26T05:58:38.593Z,5.77
2023-03-26T06:01:05.754Z,5.77
2023-03-26T06:03:28.698Z,5.95
2023-03-26T06:05:42.955Z,5.89
2023-03-26T06:07:52.895Z,5.80
2023-03-26T06:09:54.950Z,5.83
2023-03-26T06:11:56.770Z,6.01
2023-03-26T06:13:58.904Z,6.00
2023-03-26T06:16:00.918Z,6.05
2023-03-26T06:18:08.675Z,5.88
2023-03-26T06:20:28.723Z,5.97
2023-03-26T06:22:30.846Z,5.69
2023-03-26T06:24:52.924Z,5.57
2023-03-26T06:27:13.367Z,5.71
2023-03-26T06:29:38.490Z,5.83
2023-03-26T06:31:53.015Z,5.77
2023-03-26T06:33:58.214Z,5.58
2023-03-26T06:36:00.113Z,5.51
2023-03-26T06:38:02.029Z,5.76
2023-03-26T06:40:05.544Z,5.97
2023-03-26T06:42:20.442Z,6.22
2023-03-26T06:44:32.523Z,6.26
2023-03-26T06:46:52.626Z,6.38
2023-03-26T06:49:20.793Z,6.50
2023-03-26T06:52:02.788Z,6.63
2023-03-26T06:54:35.089Z,6.76
2023-03-26T06:56:45.047Z,6.86
2023-03-26T06:59:15.293Z,7.00
2023-03-26T07:01:35.842Z,7.01
2023-03-26T07:04:15.840Z,7.19
2023-03-26T07:06:36.277Z,7.15
2023-03-26T07:08:57.311Z,7.26
2023-03-26T07:11:19.446Z,7.27
2023-03-26T07:13:40.011Z,7.35
2023-03-26T07:16:00.555Z,7.47
2023-03-26T07:18:13.797Z,7.59
2023-03-26T07:20:17.264Z,7.58
2023-03-26T07:22:23.404Z,7.65
2023-03-26T07:24:44.130Z,7.75
2023-03-26T07:27:27.702Z,7.85
2023-03-26T07:29:47.716Z,7.93
2023-03-26T07:32:32.849Z,7.48
2023-03-26T07:35:05.265Z,7.35
2023-03-26T07:37:44.107Z,7.50
2023-03-26T07:40:33.207Z,7.60
2023-03-26T07:43:06.346Z,7.71
2023-03-26T07:45:33.841Z,7.65
2023-03-26T07:47:57.983Z,7.82
2023-03-26T07:50:23.306Z,7.74
2023-03-26T07:52:37.116Z,7.89
2023-03-26T07:54:55.505Z,7.87
2023-03-26T07:57:27.382Z,7.95
2023-03-26T07:59:55.718Z,7.85
2023-03-26T08:02:41.286Z,7.87
2023-03-26T08:05:28.444Z,7.65
2023-03-26T08:08:25.620Z,7.42
2023-03-26T08:11:14.503Z,7.42
2023-03-26T08:14:01.138Z,7.38
2023-03-26T08:16:10.988Z,6.91
2023-03-26T08:18:51.427Z,6.98
2023-03-26T08:21:17.123Z,7.25
2023-03-26T08:23:50.428Z,7.17
2023-03-26T08:26:12.691Z,7.37
2023-03-26T08:28:32.375Z,7.21
2023-03-26T08:30:34.161Z,7.37
2023-03-26T08:32:36.406Z,7.41
2023-03-26T08:34:38.959Z,7.29
2023-03-26T08:36:40.878Z,7.34
2023-03-26T08:38:42.437Z,7.38
2023-03-26T08:41:11.256Z,7.50
2023-03-26T08:43:33.842Z,7.42
2023-03-26T08:45:51.326Z,7.24
2023-03-26T08:48:30.632Z,7.38
2023-03-26T08:51:07.665Z,7.62
2023-03-26T08:53:33.786Z,7.59
2023-03-26T08:55:55.509Z,7.68
2023-03-26T08:58:09.302Z,7.83
2023-03-26T09:00:16.617Z,7.96
2023-03-26T09:02:18.184Z,8.10
2023-03-26T09:04:53.667Z,8.09
2023-03-26T09:07:13.668Z,7.66
2023-03-26T09:10:05.254Z,7.53
2023-03-26T09:12:25.554Z,7.59
2023-03-26T09:14:55.597Z,7.28
2023-03-26T09:17:32.764Z,6.84
2023-03-26T09:19:54.716Z,6.95
2023-03-26T09:22:24.280Z,6.85
2023-03-26T09:24:57.728Z,7.10
2023-03-26T09:27:09.037Z,7.36
2023-03-26T09:29:16.743Z,7.06
2023-03-26T09:31:46.727Z,7.16
2023-03-26T09:34:07.392Z,6.74
2023-03-26T09:36:21.663Z,6.98
2023-03-26T09:38:48.903Z,7.17
2023-03-26T09:41:08.289Z,7.00
2023-03-26T09:43:48.676Z,6.84
2023-03-26T09:46:12.712Z,6.84
2023-03-26T09:48:20.650Z,6.86
2023-03-26T09:50:22.146Z,6.95
2023-03-26T09:52:33.380Z,6.93
2023-03-26T09:55:03.640Z,6.92
2023-03-26T09:57:21.107Z,7.16
2023-03-26T09:59:39.564Z,7.36
2023-03-26T10:01:41.063Z,7.13
2023-03-26T10:03:52.826Z,7.22
2023-03-26T10:06:18.815Z,7.21
2023-03-26T10:08:28.251Z,6.86
2023-03-26T10:10:48.476Z,6.96
2023-03-26T10:13:12.036Z,6.68
2023-03-26T10:15:42.399Z,6.56
2023-03-26T10:18:29.443Z,6.42
2023-03-26T10:20:38.377Z,6.68
2023-03-26T10:23:15.913Z,6.94
2023-03-26T10:25:32.026Z,7.10
2023-03-26T10:27:52.238Z,7.10
2023-03-26T10:30:17.891Z,6.74
2023-03-26T10:32:22.127Z,6.74
2023-03-26T10:34:49.822Z,6.83
2023-03-26T10:37:08.612Z,6.79
2023-03-26T10:39:36.749Z,6.60
2023-03-26T10:42:08.183Z,6.70
2023-03-26T10:44:21.746Z,6.77
2023-03-26T10:46:38.386Z,6.79
2023-03-26T10:49:04.216Z,6.84
2023-03-26T10:51:36.301Z,6.92
2023-03-26T10:53:58.617Z,7.18
2023-03-26T10:56:28.576Z,7.13
2023-03-26T10:58:48.957Z,7.09
2023-03-26T11:01:04.028Z,7.40
2023-03-26T11:03:35.647Z,6.72
2023-03-26T11:05:59.753Z,7.09
2023-03-26T11:08:12.244Z,7.35
2023-03-26T11:10:26.289Z,7.53
2023-03-26T11:12:39.757Z,7.49
2023-03-26T11:15:02.052Z,7.73
2023-03-26T11:17:40.120Z,7.34
2023-03-26T11:19:53.129Z,7.57
2023-03-26T11:22:16.125Z,7.67
2023-03-26T11:24:30.758Z,8.16
2023-03-26T11:26:45.075Z,8.71
2023-03-26T11:29:31.870Z,9.77
2023-03-26T11:32:12.984Z,9.76
2023-03-26T11:34:23.355Z,10.13
2023-03-26T11:36:35.775Z,9.41
2023-03-26T11:38:49.256Z,9.24
2023-03-26T11:40:59.005Z,9.29
2023-03-26T11:43:29.931Z,8.99
2023-03-26T11:45:37.618Z,8.78
2023-03-26T11:47:46.095Z,9.63
2023-03-26T11:49:50.037Z,9.84
2023-03-26T11:51:51.582Z,10.02
2023-03-26T11:53:55.686Z,9.55
2023-03-26T11:56:23.616Z,10.04
2023-03-26T11:58:38.932Z,10.10
2023-03-26T12:00:40.538Z,9.48
2023-03-26T12:02:42.945Z,9.71
2023-03-26T12:04:50.845Z,10.21
2023-03-26T12:06:59.576Z,10.48
2023-03-26T12:09:02.548Z,10.65
2023-03-26T12:11:10.789Z,10.51
2023-03-26T12:13:21.559Z,10.20
2023-03-26T12:15:24.872Z,9.50
2023-03-26T12:17:40.127Z,9.65
2023-03-26T12:19:44.628Z,9.82
2023-03-26T12:21:49.538Z,9.90
2023-03-26T12:23:56.427Z,10.10
2023-03-26T12:26:16.091Z,9.92
2023-03-26T12:28:19.591Z,9.80
2023-03-26T12:30:39.365Z,10.07
2023-03-26T12:32:46.321Z,9.95
2023-03-26T12:34:48.847Z,9.87
2023-03-26T12:36:56.094Z,9.76
2023-03-26T12:39:42.727Z,9.80
2023-03-26T12:44:47.002Z,9.91
2023-03-26T12:44:55.607Z,9.85
2023-03-26T12:47:56.491Z,10.03
2023-03-26T12:48:56.632Z,9.78
2023-03-26T12:51:06.330Z,9.63
2023-03-26T12:53:48.754Z,9.14
2023-03-26T12:56:12.404Z,9.09
2023-03-26T12:58:38.342Z,8.64
2023-03-26T13:01:02.940Z,8.56
2023-03-26T13:03:17.934Z,8.36
2023-03-26T13:05:47.584Z,8.23
2023-03-26T13:08:26.697Z,8.17
2023-03-26T13:10:43.156Z,8.20
2023-03-26T13:13:23.399Z,8.32
2023-03-26T13:15:25.024Z,7.93
2023-03-26T13:18:16.340Z,8.26
2023-03-26T13:20:43.498Z,9.53
2023-03-26T13:22:56.214Z,9.74
2023-03-26T13:25:18.540Z,9.91
2023-03-26T13:27:35.804Z,9.80
2023-03-26T13:29:56.694Z,10.01
2023-03-26T13:32:01.488Z,9.95
2023-03-26T13:34:09.075Z,9.61
2023-03-26T13:36:31.291Z,9.61
2023-03-26T13:38:59.222Z,9.38
2023-03-26T13:41:29.930Z,9.49
2023-03-26T13:44:05.952Z,9.17
2023-03-26T13:46:23.839Z,9.37
2023-03-26T13:48:36.047Z,9.69
2023-03-26T13:50:43.671Z,10.82
2023-03-26T13:52:52.198Z,12.07
2023-03-26T13:55:12.176Z,12.79
2023-03-26T13:57:35.398Z,13.91
2023-03-26T13:59:45.647Z,15.11
2023-03-26T14:01:53.432Z,16.20
2023-03-26T14:04:07.715Z,17.11
2023-03-26T14:06:27.793Z,17.80
2023-03-26T14:08:41.966Z,17.97
2023-03-26T14:10:51.334Z,17.31
2023-03-26T14:13:19.198Z,17.83
2023-03-26T14:15:34.592Z,18.18
2023-03-26T14:17:47.406Z,17.19
2023-03-26T14:19:51.848Z,16.66
2023-03-26T14:22:38.653Z,15.76
2023-03-26T14:25:02.468Z,14.49
2023-03-26T14:27:16.359Z,13.86
2023-03-26T14:29:41.543Z,13.74
2023-03-26T14:32:29.917Z,13.47
2023-03-26T14:35:06.614Z,13.13
2023-03-26T14:37:28.171Z,13.61
2023-03-26T14:39:56.462Z,12.99
2023-03-26T14:42:02.663Z,13.07
2023-03-26T14:44:24.701Z,12.88
2023-03-26T14:46:35.217Z,12.40
2023-03-26T14:49:06.812Z,12.29
2023-03-26T14:51:23.300Z,12.46
2023-03-26T14:53:33.409Z,12.13
2023-03-26T14:55:44.169Z,11.50
2023-03-26T14:58:23.399Z,11.43
2023-03-26T15:00:56.250Z,11.17
2023-03-26T15:03:09.634Z,11.09
2023-03-26T15:05:46.391Z,10.77
2023-03-26T15:08:11.763Z,10.67
2023-03-26T15:10:42.343Z,10.71
2023-03-26T15:13:06.114Z,10.87
2023-03-26T15:15:29.306Z,11.04
2023-03-26T15:17:55.671Z,11.41
2023-03-26T15:20:31.684Z,11.44
2023-03-26T15:23:25.458Z,11.63
2023-03-26T15:25:47.829Z,12.97
2023-03-26T15:28:18.451Z,13.86
2023-03-26T15:30:30.122Z,14.58
2023-03-26T15:32:49.398Z,15.19
2023-03-26T15:35:30.378Z,15.13
2023-03-26T15:38:03.144Z,15.48
2023-03-26T15:40:17.087Z,15.91
2023-03-26T15:42:45.544Z,15.19
2023-03-26T15:45:22.380Z,14.56
2023-03-26T15:47:32.830Z,14.45
2023-03-26T15:49:58.998Z,14.57
2023-03-26T15:52:23.921Z,15.06
2023-03-26T15:54:30.139Z,15.14
2023-03-26T15:57:02.737Z,15.21
2023-03-26T15:59:28.808Z,15.20
2023-03-26T16:02:03.713Z,13.23
2023-03-26T16:04:35.925Z,12.42
2023-03-26T16:06:55.202Z,11.82
2023-03-26T16:09:38.565Z,11.35
2023-03-26T16:12:12.402Z,11.19
2023-03-26T16:14:35.939Z,10.88
2023-03-26T16:16:54.411Z,10.90
2023-03-26T16:19:20.900Z,10.94
2023-03-26T16:21:31.263Z,10.98
2023-03-26T16:23:47.879Z,10.79
2023-03-26T16:26:07.725Z,10.66
2023-03-26T16:28:27.919Z,10.30
2023-03-26T16:30:31.400Z,10.32
2023-03-26T16:32:36.080Z,10.51
2023-03-26T16:34:57.158Z,10.38
2023-03-26T16:36:59.102Z,10.29
2023-03-26T16:39:04.322Z,10.21
2023-03-26T16:41:26.939Z,9.89
2023-03-26T16:43:48.091Z,8.93
2023-03-26T16:46:28.567Z,8.29
2023-03-26T16:49:03.655Z,7.70
2023-03-26T16:51:18.517Z,7.34
2023-03-26T16:53:41.612Z,7.22
2023-03-26T16:55:58.929Z,6.88
2023-03-26T16:58:22.439Z,7.05
2023-03-26T17:00:29.996Z,7.14
2023-03-26T17:02:42.511Z,6.92
2023-03-26T17:04:48.523Z,6.90
2023-03-26T17:07:13.942Z,6.72
2023-03-26T17:09:51.775Z,6.91
2023-03-26T17:12:08.382Z,6.89
2023-03-26T17:14:34.635Z,6.93
2023-03-26T17:16:42.715Z,6.82
2023-03-26T17:19:00.591Z,6.98
2023-03-26T17:21:19.656Z,7.08
2023-03-26T17:23:27.135Z,7.10
2023-03-26T17:25:57.217Z,6.88
2023-03-26T17:28:25.130Z,6.91
2023-03-26T17:30:38.204Z,6.94
2023-03-26T17:32:58.666Z,6.90
2023-03-26T17:35:03.517Z,6.88
2023-03-26T17:37:27.797Z,6.59
2023-03-26T17:39:46.660Z,6.54
2023-03-26T17:42:01.138Z,6.68
2023-03-26T17:44:28.926Z,6.66
2023-03-26T17:46:42.696Z,6.60
2023-03-26T17:48:49.212Z,6.59
2023-03-26T17:50:56.366Z,6.53
2023-03-26T17:53:29.167Z,6.68
2023-03-26T17:55:34.834Z,6.70
2023-03-26T17:57:50.345Z,6.81
2023-03-26T17:59:57.661Z,6.68
2023-03-26T18:02:03.454Z,6.80
2023-03-26T18:04:15.511Z,6.79
2023-03-26T18:06:40.644Z,6.86
2023-03-26T18:09:11.983Z,6.77
2023-03-26T18:11:23.863Z,6.84
2023-03-26T18:13:45.911Z,6.73
2023-03-26T18:16:06.108Z,6.85
2023-03-26T18:18:22.570Z,6.70
2023-03-26T18:20:28.203Z,6.71
2023-03-26T18:22:30.354Z,6.88
2023-03-26T18:24:38.305Z,6.79
2023-03-26T18:26:42.623Z,6.70
2023-03-26T18:28:49.331Z,6.69
2023-03-26T18:30:51.735Z,6.51
2023-03-26T18:33:01.201Z,6.55
2023-03-26T18:35:20.121Z,6.71
2023-03-26T18:37:24.055Z,6.73
2023-03-26T18:39:25.705Z,6.51
2023-03-26T18:41:31.231Z,6.50
2023-03-26T18:43:35.649Z,6.57
2023-03-26T18:45:49.481Z,6.76
2023-03-26T18:47:57.842Z,6.77
2023-03-26T18:50:00.098Z,6.69
2023-03-26T18:52:01.853Z,6.67
2023-03-26T18:54:06.557Z,6.64
2023-03-26T18:56:27.791Z,6.41
2023-03-26T18:58:37.134Z,6.56
2023-03-26T19:00:40.013Z,6.54
2023-03-26T19:02:41.833Z,6.58
2023-03-26T19:04:46.973Z,6.49
2023-03-26T19:06:53.638Z,6.40
2023-03-26T19:08:57.063Z,6.46
2023-03-26T19:11:02.666Z,6.59
2023-03-26T19:13:04.281Z,6.54
2023-03-26T19:15:11.034Z,6.46
2023-03-26T19:17:12.959Z,6.33
2023-03-26T19:19:22.418Z,6.36
2023-03-26T19:21:25.068Z,6.53
2023-03-26T19:23:31.108Z,6.54
2023-03-26T19:25:45.980Z,6.50
2023-03-26T19:27:48.202Z,6.61
2023-03-26T19:29:50.176Z,6.64
2023-03-26T19:31:52.762Z,6.57
2023-03-26T19:33:58.138Z,6.41
2023-03-26T19:36:15.931Z,6.39
2023-03-26T19:38:29.548Z,6.33
2023-03-26T19:40:33.642Z,6.22
2023-03-26T19:42:43.910Z,6.21
2023-03-26T19:44:46.360Z,6.33
2023-03-26T19:46:54.005Z,6.32
2023-03-26T19:48:57.536Z,6.42
2023-03-26T19:51:05.990Z,6.40
2023-03-26T19:53:16.600Z,6.36
2023-03-26T19:55:24.245Z,6.16
2023-03-26T19:57:25.772Z,6.27
2023-03-26T19:59:27.372Z,6.08
2023-03-26T20:01:30.626Z,6.23
2023-03-26T20:03:44.449Z,6.22
2023-03-26T20:05:46.153Z,6.18
2023-03-26T20:07:50.070Z,6.28
2023-03-26T20:09:52.421Z,6.21
2023-03-26T20:11:54.237Z,6.17
2023-03-26T20:13:55.875Z,6.17
2023-03-26T20:16:07.192Z,6.30
2023-03-26T20:18:08.898Z,6.23
2023-03-26T20:20:13.853Z,6.33
2023-03-26T20:22:23.511Z,6.24
2023-03-26T20:24:26.013Z,6.30
2023-03-26T20:26:27.694Z,6.20
2023-03-26T20:28:30.380Z,6.21
2023-03-26T20:30:37.904Z,6.01
2023-03-26T20:32:40.568Z,6.18
2023-03-26T20:34:42.054Z,6.22
2023-03-26T20:36:45.460Z,6.20
2023-03-26T20:38:47.222Z,6.27
2023-03-26T20:40:49.406Z,6.28
2023-03-26T20:42:51.274Z,6.43
2023-03-26T20:44:52.870Z,6.39
2023-03-26T20:46:56.291Z,6.33
2023-03-26T20:48:58.064Z,6.30
2023-03-26T20:50:59.686Z,6.23
2023-03-26T20:53:02.480Z,6.27
2023-03-26T20:55:04.334Z,6.38
2023-03-26T20:57:05.920Z,6.42
2023-03-26T20:59:11.345Z,6.57
2023-03-26T21:01:14.234Z,6.54
2023-03-26T21:03:18.072Z,6.53
2023-03-26T21:05:24.865Z,6.46
2023-03-26T21:07:26.684Z,6.52
2023-03-26T21:09:34.084Z,6.53
2023-03-26T21:12:04.927Z,6.23
2023-03-26T21:14:18.361Z,5.95
2023-03-26T21:16:20.238Z,5.78
2023-03-26T21:18:22.499Z,6.14
2023-03-26T21:20:27.868Z,6.02
2023-03-26T21:23:08.716Z,5.78
2023-03-26T21:25:28.397Z,5.95
2023-03-26T21:27:36.255Z,5.85
2023-03-26T21:29:39.183Z,5.87
2023-03-26T21:31:41.066Z,5.83
2023-03-26T21:33:42.777Z,5.73
2023-03-26T21:35:44.840Z,5.71
2023-03-26T21:37:49.688Z,5.69
2023-03-26T21:39:51.514Z,5.85
2023-03-26T21:42:04.336Z,5.77
2023-03-26T21:44:08.355Z,5.82
2023-03-26T21:46:10.772Z,5.82
2023-03-26T21:48:13.018Z,5.65
2023-03-26T21:50:17.928Z,5.61
2023-03-26T21:52:19.715Z,5.55
2023-03-26T21:54:23.052Z,5.65
2023-03-26T21:56:43.705Z,5.68
2023-03-26T21:58:51.649Z,5.62
2023-03-26T22:01:30.509Z,5.57
2023-03-26T22:03:55.096Z,5.40
2023-03-26T22:06:07.009Z,5.31
2023-03-26T22:08:21.819Z,5.36
2023-03-26T22:10:23.249Z,5.40
2023-03-26T22:12:25.563Z,5.33
2023-03-26T22:14:28.179Z,5.22
2023-03-26T22:16:29.898Z,5.15
2023-03-26T22:18:32.832Z,5.17
2023-03-26T22:20:34.540Z,5.08
2023-03-26T22:22:36.096Z,5.02
2023-03-26T22:24:38.408Z,5.05
2023-03-26T22:26:39.900Z,5.07
2023-03-26T22:28:41.588Z,4.81
2023-03-26T22:30:43.120Z,4.91
2023-03-26T22:32:45.466Z,4.81
2023-03-26T22:34:47.085Z,4.75
2023-03-26T22:36:48.685Z,4.73
2023-03-26T22:38:53.538Z,4.62
2023-03-26T22:40:57.150Z,4.61
2023-03-26T22:42:58.908Z,4.57
2023-03-26T22:45:00.617Z,4.51
2023-03-26T22:47:02.226Z,4.55
2023-03-26T22:49:03.964Z,4.46
2023-03-26T22:51:08.009Z,4.27
2023-03-26T22:53:09.602Z,4.18
2023-03-26T22:55:11.551Z,4.06
2023-03-26T22:57:13.146Z,3.97
2023-03-26T22:59:15.300Z,3.95
2023-03-26T23:01:21.241Z,4.06
2023-03-26T23:03:35.235Z,4.09
2023-03-26T23:05:38.142Z,3.92
2023-03-26T23:07:40.152Z,3.86
2023-03-26T23:09:41.799Z,3.90
2023-03-26T23:11:43.469Z,3.87
2023-03-26T23:13:47.748Z,3.85
2023-03-26T23:15:51.010Z,3.82
2023-03-26T23:17:54.708Z,3.70
2023-03-26T23:19:56.766Z,3.62
2023-03-26T23:21:58.471Z,3.47
2023-03-26T23:24:00.287Z,3.36
2023-03-26T23:26:06.670Z,3.37
2023-03-26T23:28:08.266Z,3.32
2023-03-26T23:30:10.869Z,3.36
2023-03-26T23:32:23.574Z,3.34
2023-03-26T23:34:26.617Z,3.37
2023-03-26T23:36:28.245Z,3.25
2023-03-26T23:38:43.481Z,3.27
2023-03-26T23:40:57.220Z,3.18
2023-03-26T23:42:59.331Z,3.06
2023-03-26T23:45:00.962Z,3.05
2023-03-26T23:47:02.544Z,2.99
2023-03-26T23:49:04.111Z,3.08
2023-03-26T23:51:06.744Z,3.05
2023-03-26T23:53:08.426Z,3.00
2023-03-26T23:55:10.088Z,3.01
2023-03-26T23:57:11.889Z,3.05
2023-03-26T23:59:13.632Z,2.98
